Time;durP1;ratioP1;P1;durP2;ratioP2;P2;SDS_P1;SDS_P2;PMS_P1;PMS_P2;Temp;Humidity;BMP_temperature;BMP_pressure;BME280_temperature;BME280_humidity;BME280_pressure;Samples;Min_cycle;Max_cycle;Signal;HPM_P1;HPM_P2
2021/10/20 00:01:49;;;;;;;66.47;33.43;;;;;;;14.56;100.00;100531.81;5109228;28;20760;-79
2021/10/20 00:04:15;;;;;;;68.33;35.20;;;;;;;14.64;100.00;100538.91;5108890;28;20024;-79
2021/10/20 00:06:41;;;;;;;70.78;35.65;;;;;;;14.64;100.00;100527.31;5092097;28;20126;-79
2021/10/20 00:09:06;;;;;;;71.53;34.43;;;;;;;14.67;100.00;100522.38;5110139;28;20467;-80
2021/10/20 00:11:32;;;;;;;61.47;33.30;;;;;;;14.63;100.00;100517.59;5091974;28;20043;-79
2021/10/20 00:13:58;;;;;;;56.70;31.27;;;;;;;14.63;100.00;100513.03;5110150;28;20035;-79
2021/10/20 00:16:24;;;;;;;52.57;30.33;;;;;;;14.66;100.00;100503.78;5109858;28;20457;-79
2021/10/20 00:18:50;;;;;;;;;;;;;;;14.68;100.00;100491.81;5109180;28;20085;-79
2021/10/20 00:21:19;;;;;;;;;;;;;;;14.73;100.00;100483.16;5109296;28;19919;-75
2021/10/20 00:23:44;;;;;;;57.60;32.40;;;;;;;14.70;100.00;100478.16;5109325;28;19911;-74
2021/10/20 00:26:10;;;;;;;55.30;30.38;;;;;;;14.73;100.00;100470.56;5109854;28;20154;-75
2021/10/20 00:28:35;;;;;;;52.23;32.00;;;;;;;14.75;100.00;100471.19;5108522;28;20085;-74
2021/10/20 00:31:01;;;;;;;50.00;30.30;;;;;;;14.72;100.00;100450.06;5108841;28;20305;-75
2021/10/20 00:33:26;;;;;;;51.03;32.37;;;;;;;14.76;100.00;100440.59;5108611;28;20288;-75
2021/10/20 00:35:52;;;;;;;53.67;30.10;;;;;;;14.81;100.00;100425.75;5108716;28;20088;-74
2021/10/20 00:38:17;;;;;;;52.40;29.48;;;;;;;14.83;100.00;100405.69;5108961;28;20040;-74
2021/10/20 00:40:43;;;;;;;50.43;29.70;;;;;;;14.86;100.00;100388.34;5108937;28;20036;-74
2021/10/20 00:43:08;;;;;;;48.27;27.43;;;;;;;14.88;100.00;100380.91;5109599;28;20042;-74
2021/10/20 00:45:35;;;;;;;49.83;27.37;;;;;;;14.89;100.00;100364.59;5108609;28;20357;-74
2021/10/20 00:48:01;;;;;;;41.63;26.38;;;;;;;14.91;100.00;100356.31;5109629;28;20513;-74
2021/10/20 00:50:26;;;;;;;43.37;27.07;;;;;;;14.97;100.00;100340.22;5108402;28;20035;-74
2021/10/20 00:52:52;;;;;;;40.57;25.50;;;;;;;15.02;100.00;100330.72;5091605;28;20035;-74
2021/10/20 00:55:17;;;;;;;45.40;26.83;;;;;;;15.05;100.00;100314.19;5108768;28;20349;-75
2021/10/20 00:57:45;;;;;;;42.92;25.55;;;;;;;15.00;100.00;100306.72;5109397;28;20031;-74
2021/10/20 01:00:11;;;;;;;35.30;23.58;;;;;;;15.03;100.00;100306.34;5091499;28;20122;-75
2021/10/20 01:02:39;;;;;;;38.33;23.98;;;;;;;15.04;100.00;100307.97;5108285;28;20032;-75
2021/10/20 01:05:05;;;;;;;40.67;24.75;;;;;;;15.05;100.00;100292.69;5091263;28;20031;-75
2021/10/20 01:07:31;;;;;;;40.70;24.63;;;;;;;15.02;100.00;100288.53;5108691;28;20024;-75
2021/10/20 01:09:56;;;;;;;37.03;23.98;;;;;;;15.08;100.00;100290.44;5108333;28;20062;-75
2021/10/20 01:12:22;;;;;;;35.63;23.10;;;;;;;15.03;100.00;100279.47;5108065;28;20035;-75
2021/10/20 01:14:48;;;;;;;38.97;24.92;;;;;;;15.09;100.00;100284.00;5108014;28;20192;-75
2021/10/20 01:17:13;;;;;;;32.72;22.63;;;;;;;15.02;100.00;100258.97;5091113;28;20561;-75
2021/10/20 01:19:43;;;;;;;39.57;23.53;;;;;;;15.11;100.00;100256.94;5091295;28;20084;-75
2021/10/20 01:22:09;;;;;;;35.60;22.52;;;;;;;15.06;100.00;100257.53;5091295;28;20177;-75
2021/10/20 01:24:35;;;;;;;40.38;23.92;;;;;;;15.01;100.00;100249.25;5107908;28;20118;-75
2021/10/20 01:27:01;;;;;;;38.03;23.58;;;;;;;14.98;100.00;100246.97;5108064;28;20028;-76
2021/10/20 01:29:27;;;;;;;;;;;;;;;15.06;100.00;100246.78;5108576;28;20047;-75
2021/10/20 01:31:54;;;;;;;;;;;;;;;15.02;100.00;100234.78;5108492;28;19938;-76
2021/10/20 01:34:21;;;;;;;33.72;22.73;;;;;;;14.95;100.00;100240.13;5108592;28;19922;-76
2021/10/20 01:36:51;;;;;;;36.10;23.17;;;;;;;14.95;100.00;100229.38;5107817;28;20036;-76
2021/10/20 01:39:19;;;;;;;35.85;22.13;;;;;;;14.97;100.00;100218.44;5108779;28;20027;-76
2021/10/20 01:41:46;;;;;;;34.78;21.10;;;;;;;14.94;100.00;100226.91;5107727;28;20501;-76
2021/10/20 01:44:12;;;;;;;36.30;21.85;;;;;;;14.97;100.00;100221.13;5107523;28;20050;-77
2021/10/20 01:46:38;;;;;;;31.00;19.70;;;;;;;15.00;100.00;100220.72;5108794;28;20037;-78
2021/10/20 01:49:04;;;;;;;32.72;20.80;;;;;;;15.00;100.00;100226.09;5108108;28;20027;-79
2021/10/20 01:51:29;;;;;;;36.55;21.85;;;;;;;14.98;100.00;100215.56;5108055;28;20407;-78
2021/10/20 01:53:55;;;;;;;32.13;19.58;;;;;;;15.05;100.00;100223.59;5108024;28;20722;-79
2021/10/20 01:56:21;;;;;;;31.95;21.05;;;;;;;15.02;100.00;100202.50;5107687;28;20043;-79
2021/10/20 01:58:47;;;;;;;32.22;19.90;;;;;;;15.08;100.00;100199.03;5108129;28;20139;-79
2021/10/20 02:01:13;;;;;;;;;;;;;;;15.05;100.00;100195.91;5109466;28;20106;-80
2021/10/20 02:03:40;;;;;;;35.05;20.60;;;;;;;15.01;100.00;100184.75;5107729;28;20023;-78
2021/10/20 02:06:12;;;;;;;34.20;18.35;;;;;;;15.00;100.00;100185.75;5091118;28;20036;-79
2021/10/20 02:08:38;;;;;;;29.80;17.80;;;;;;;14.95;100.00;100180.19;5107929;28;20357;-79
2021/10/20 02:11:05;;;;;;;32.88;18.92;;;;;;;14.98;100.00;100179.75;5107888;28;20043;-79
2021/10/20 02:13:30;;;;;;;26.73;18.42;;;;;;;14.99;100.00;100170.69;5107797;28;20100;-79
2021/10/20 02:15:56;;;;;;;27.92;17.98;;;;;;;14.93;100.00;100176.88;5107854;28;20460;-79
2021/10/20 02:18:21;;;;;;;33.23;19.87;;;;;;;14.96;100.00;100163.00;5109523;28;20035;-79
2021/10/20 02:20:47;;;;;;;31.08;17.67;;;;;;;14.97;100.00;100159.31;5112701;28;20357;-79
2021/10/20 02:23:13;;;;;;;26.30;17.13;;;;;;;14.97;100.00;100151.25;5094747;28;20154;-79
2021/10/20 02:25:39;;;;;;;32.30;19.23;;;;;;;14.98;100.00;100155.56;5111799;28;20036;-79
2021/10/20 02:28:05;;;;;;;29.77;19.60;;;;;;;14.89;100.00;100128.09;5111799;28;20045;-79
2021/10/20 02:30:30;;;;;;;29.40;17.88;;;;;;;14.94;100.00;100157.03;5111828;28;20070;-79
2021/10/20 02:32:56;;;;;;;30.53;17.70;;;;;;;14.85;100.00;100128.69;5094815;28;20573;-80
2021/10/20 02:35:22;;;;;;;30.13;17.52;;;;;;;14.86;100.00;100122.28;5111221;28;20044;-78
2021/10/20 02:37:47;;;;;;;28.52;16.80;;;;;;;14.90;100.00;100124.34;5112659;28;20032;-79
2021/10/20 02:40:14;;;;;;;28.10;17.30;;;;;;;14.87;100.00;100129.31;5112527;28;20031;-79
2021/10/20 02:42:41;;;;;;;31.42;18.23;;;;;;;14.87;100.00;100129.31;5112408;28;20020;-79
2021/10/20 02:45:08;;;;;;;28.63;18.40;;;;;;;14.86;100.00;100124.97;5111074;28;20372;-78
2021/10/20 02:47:34;;;;;;;35.10;19.48;;;;;;;14.86;100.00;100128.47;5112255;28;20042;-79
2021/10/20 02:49:59;;;;;;;29.40;18.53;;;;;;;14.80;100.00;100117.72;5112230;28;20027;-78
2021/10/20 02:52:25;;;;;;;28.92;17.90;;;;;;;14.84;100.00;100121.66;5112247;28;20457;-79
2021/10/20 02:54:51;;;;;;;31.87;18.53;;;;;;;14.75;100.00;100111.13;5110376;28;20047;-79
2021/10/20 02:57:17;;;;;;;33.08;18.65;;;;;;;14.74;100.00;100109.44;5112189;28;20034;-79
2021/10/20 02:59:42;;;;;;;30.37;19.10;;;;;;;14.83;100.00;100122.69;5094202;28;20027;-79
2021/10/20 03:02:08;;;;;;;25.50;17.47;;;;;;;14.77;100.00;100109.06;5111318;28;20046;-79
2021/10/20 03:04:33;;;;;;;30.67;17.67;;;;;;;14.82;100.00;100126.41;5094014;28;20506;-79
2021/10/20 03:06:59;;;;;;;29.33;18.03;;;;;;;14.65;100.00;100099.09;5112047;28;20122;-79
2021/10/20 03:09:24;;;;;;;33.43;18.03;;;;;;;14.75;100.00;100113.00;5094210;28;20388;-79
2021/10/20 03:11:50;;;;;;;32.43;18.57;;;;;;;14.76;100.00;100106.56;5111194;28;20321;-79
2021/10/20 03:14:15;;;;;;;31.07;18.50;;;;;;;14.79;100.00;100106.16;5093970;28;20285;-78
2021/10/20 03:16:44;;;;;;;28.17;17.63;;;;;;;14.72;100.00;100106.13;5110922;28;20031;-80
2021/10/20 03:19:09;;;;;;;32.08;18.73;;;;;;;14.68;100.00;100094.16;5111813;28;20057;-80
2021/10/20 03:21:35;;;;;;;29.30;17.33;;;;;;;14.66;100.00;100093.53;5110398;28;20031;-80
2021/10/20 03:24:01;;;;;;;29.10;16.85;;;;;;;14.62;100.00;100083.41;5111448;28;20452;-79
2021/10/20 03:26:26;;;;;;;28.80;17.47;;;;;;;14.63;100.00;100082.38;5111750;28;20031;-79
2021/10/20 03:28:51;;;;;;;29.90;18.07;;;;;;;14.66;100.00;100080.09;5112225;28;20042;-78
2021/10/20 03:31:17;;;;;;;28.97;16.40;;;;;;;14.62;100.00;100073.47;5110766;28;20042;-79
2021/10/20 03:33:43;;;;;;;29.25;16.83;;;;;;;14.71;100.00;100074.13;5110415;28;20042;-78
2021/10/20 03:36:09;;;;;;;27.90;17.70;;;;;;;14.57;100.00;100057.16;5110515;28;20027;-79
2021/10/20 03:38:35;;;;;;;25.70;16.75;;;;;;;14.71;100.00;100077.63;5110685;28;20474;-78
2021/10/20 03:41:01;;;;;;;24.15;16.20;;;;;;;14.68;100.00;100071.81;5111318;28;20441;-79
2021/10/20 03:43:27;;;;;;;28.48;15.82;;;;;;;14.54;100.00;100069.16;5093281;28;20039;-79
2021/10/20 03:45:52;;;;;;;24.00;15.77;;;;;;;14.46;100.00;100049.69;5093273;28;20050;-77
2021/10/20 03:48:18;;;;;;;27.42;17.58;;;;;;;14.56;100.00;100060.88;5111170;28;20475;-79
2021/10/20 03:50:43;;;;;;;29.60;16.13;;;;;;;14.62;100.00;100067.28;5110199;28;20080;-79
2021/10/20 03:53:09;;;;;;;26.40;15.63;;;;;;;14.66;100.00;100049.75;5111104;28;20088;-79
2021/10/20 03:55:35;;;;;;;29.33;16.05;;;;;;;14.54;100.00;100061.09;5110460;28;20072;-79
2021/10/20 03:58:01;;;;;;;24.50;13.85;;;;;;;14.61;100.00;100044.97;5093070;28;20460;-79
2021/10/20 04:00:27;;;;;;;24.52;14.23;;;;;;;14.60;100.00;100037.94;5110238;28;20042;-78
2021/10/20 04:02:52;;;;;;;22.13;14.48;;;;;;;14.55;100.00;100030.50;5110030;28;20039;-79
2021/10/20 04:05:19;;;;;;;25.50;14.37;;;;;;;14.68;100.00;100029.69;5092854;28;20037;-78
2021/10/20 04:07:47;;;;;;;25.73;12.88;;;;;;;14.60;100.00;100021.81;5109978;28;20046;-78
2021/10/20 04:10:16;;;;;;;27.90;16.52;;;;;;;14.60;100.00;100012.94;5110601;28;20042;-78
2021/10/20 04:12:42;;;;;;;23.00;14.43;;;;;;;14.55;100.00;100016.25;5109835;28;20119;-79
2021/10/20 04:15:10;;;;;;;19.45;12.68;;;;;;;14.53;100.00;100019.09;5109535;28;20110;-77
2021/10/20 04:17:37;;;;;;;23.23;13.57;;;;;;;14.36;100.00;99996.38;5092616;28;20073;-79
2021/10/20 04:20:08;;;;;;;19.48;12.43;;;;;;;14.46;100.00;100012.06;5109670;28;20027;-79
2021/10/20 04:22:34;;;;;;;22.17;13.55;;;;;;;14.42;100.00;100008.13;5109790;28;20368;-79
2021/10/20 04:25:00;;;;;;;20.10;12.82;;;;;;;14.42;100.00;99994.72;5092305;28;20035;-78
2021/10/20 04:27:25;;;;;;;20.38;13.10;;;;;;;14.42;100.00;99994.72;5109598;28;20028;-79
2021/10/20 04:29:51;;;;;;;26.60;13.77;;;;;;;14.45;100.00;99992.47;5109443;28;20024;-78
2021/10/20 04:32:16;;;;;;;21.67;13.33;;;;;;;14.37;100.00;99979.22;5110311;27;20027;-74
2021/10/20 04:34:42;;;;;;;20.80;12.90;;;;;;;14.39;100.00;99984.41;5109855;28;20795;-75
2021/10/20 04:37:07;;;;;;;22.58;12.65;;;;;;;14.45;100.00;99991.63;5110036;28;20042;-75
2021/10/20 04:39:34;;;;;;;18.63;12.07;;;;;;;14.50;100.00;99983.78;5109082;28;20036;-75
2021/10/20 04:41:59;;;;;;;19.08;12.07;;;;;;;14.43;100.00;99973.03;5107967;28;20043;-75
2021/10/20 04:44:24;;;;;;;21.27;11.60;;;;;;;14.46;100.00;99972.59;5108791;28;20051;-74
2021/10/20 04:46:50;;;;;;;19.63;11.93;;;;;;;14.50;100.00;99978.41;5108973;28;20059;-75
2021/10/20 04:49:15;;;;;;;20.63;13.23;;;;;;;14.49;100.00;99974.06;5091854;28;20050;-75
2021/10/20 04:51:41;;;;;;;17.83;11.38;;;;;;;14.48;100.00;99964.34;5109817;28;20116;-75
2021/10/20 04:54:06;;;;;;;18.53;11.57;;;;;;;14.48;100.00;99964.34;5107919;28;20036;-75
2021/10/20 04:56:32;;;;;;;17.03;11.43;;;;;;;14.41;100.00;99963.53;5108700;28;20422;-76
2021/10/20 04:58:57;;;;;;;19.50;11.23;;;;;;;14.41;100.00;99968.91;5108661;28;20126;-75
2021/10/20 05:01:23;;;;;;;15.67;10.77;;;;;;;14.45;100.00;99959.41;5091698;28;20108;-75
2021/10/20 05:03:48;;;;;;;16.50;10.10;;;;;;;14.41;99.89;99950.94;5091377;28;20032;-76
2021/10/20 05:06:14;;;;;;;19.63;10.40;;;;;;;14.42;99.42;99949.91;5108328;28;20034;-75
2021/10/20 05:08:39;;;;;;;16.50;10.80;;;;;;;14.38;99.36;99945.97;5109542;28;20326;-75
2021/10/20 05:11:05;;;;;;;17.10;10.88;;;;;;;14.42;98.80;99946.38;5109458;28;20039;-75
2021/10/20 05:13:30;;;;;;;18.73;10.67;;;;;;;14.33;98.89;99935.84;5108111;28;20036;-76
2021/10/20 05:15:56;;;;;;;13.93;10.25;;;;;;;14.39;98.27;99930.69;5108414;28;20077;-75
2021/10/20 05:18:21;;;;;;;16.13;9.77;;;;;;;14.32;97.78;99918.06;5108461;28;20027;-74
2021/10/20 05:20:47;;;;;;;12.57;9.63;;;;;;;14.35;97.55;99927.56;5109238;28;20097;-75
2021/10/20 05:23:13;;;;;;;14.60;8.70;;;;;;;14.30;97.42;99916.63;5091346;28;20034;-75
2021/10/20 05:25:39;;;;;;;15.55;9.27;;;;;;;14.24;97.45;99904.06;5109314;28;20027;-75
2021/10/20 05:28:06;;;;;;;12.53;8.97;;;;;;;14.19;97.47;99906.50;5108338;28;20074;-75
2021/10/20 05:30:32;;;;;;;14.48;9.32;;;;;;;14.25;97.03;99921.81;5109125;28;20299;-75
2021/10/20 05:32:57;;;;;;;14.57;9.23;;;;;;;14.23;97.11;99919.31;5109000;28;20172;-75
2021/10/20 05:35:23;;;;;;;14.82;9.02;;;;;;;14.23;96.59;99913.13;5108817;28;20114;-75
2021/10/20 05:37:50;;;;;;;19.10;9.03;;;;;;;14.24;96.63;99896.81;5109140;28;20027;-75
2021/10/20 05:40:17;;;;;;;13.85;9.27;;;;;;;14.22;96.64;99896.19;5108272;28;20130;-76
2021/10/20 05:42:43;;;;;;;13.50;9.02;;;;;;;14.21;96.34;99889.19;5091145;28;20038;-75
2021/10/20 05:45:09;;;;;;;13.90;8.73;;;;;;;14.18;96.12;99878.84;5107839;28;20036;-75
2021/10/20 05:47:35;;;;;;;16.92;8.80;;;;;;;14.24;96.25;99878.03;5107961;28;20042;-75
2021/10/20 05:50:00;;;;;;;15.73;8.73;;;;;;;14.23;95.83;99878.22;5107764;28;20368;-75
2021/10/20 05:52:26;;;;;;;14.60;8.48;;;;;;;14.12;96.69;99875.16;5107704;28;20181;-75
2021/10/20 05:54:51;;;;;;;14.67;9.73;;;;;;;14.17;96.15;99866.47;5107917;28;20095;-75
2021/10/20 05:57:17;;;;;;;14.03;8.23;;;;;;;14.22;95.67;99866.66;5090837;28;20385;-76
2021/10/20 05:59:42;;;;;;;14.77;9.97;;;;;;;14.21;95.16;99870.41;5108759;28;20031;-76
2021/10/20 06:02:12;;;;;;;16.43;8.80;;;;;;;14.21;95.16;99867.72;5107778;28;20300;-75
2021/10/20 06:04:38;;;;;;;13.88;9.35;;;;;;;14.17;94.73;99853.06;5108466;28;20043;-76
2021/10/20 06:07:04;;;;;;;13.95;9.35;;;;;;;14.21;95.06;99858.81;5108584;28;20023;-75
2021/10/20 06:09:29;;;;;;;15.43;9.25;;;;;;;14.12;94.81;99858.22;5107725;28;20039;-76
2021/10/20 06:11:54;;;;;;;17.40;11.20;;;;;;;14.18;94.44;99857.38;5090740;28;20028;-76
2021/10/20 06:14:20;;;;;;;16.90;9.23;;;;;;;14.17;94.16;99842.31;5107468;28;20456;-75
2021/10/20 06:16:46;;;;;;;16.10;8.97;;;;;;;14.19;94.34;99851.00;5108513;28;20300;-74
2021/10/20 06:19:11;;;;;;;17.80;8.77;;;;;;;14.21;94.36;99853.44;5107510;28;20417;-76
2021/10/20 06:21:37;;;;;;;14.83;9.50;;;;;;;14.19;94.23;99852.81;5108545;28;20027;-76
2021/10/20 06:24:03;;;;;;;13.85;8.48;;;;;;;14.18;94.00;99841.28;5107306;28;20032;-76
2021/10/20 06:26:28;;;;;;;14.63;9.27;;;;;;;14.13;93.88;99846.44;5090625;28;20028;-76
2021/10/20 06:28:55;;;;;;;17.23;9.63;;;;;;;14.11;93.81;99837.75;5107691;28;20081;-76
2021/10/20 06:31:21;;;;;;;15.40;9.48;;;;;;;14.19;93.81;99840.25;5107792;28;20345;-75
2021/10/20 06:33:46;;;;;;;15.00;9.95;;;;;;;14.18;93.64;99835.91;5108238;28;20023;-75
2021/10/20 06:36:30;;;;;;;15.83;8.77;;;;;;;14.21;93.40;99834.66;5108317;28;20620;-76
2021/10/20 06:38:56;;;;;;;16.48;8.63;;;;;;;14.17;93.05;99836.94;5108387;28;20477;-75
2021/10/20 06:41:21;;;;;;;16.25;10.02;;;;;;;14.19;93.20;99820.63;5090511;28;20057;-76
2021/10/20 06:43:47;;;;;;;17.67;9.10;;;;;;;14.21;92.63;99831.97;5107012;28;20036;-76
2021/10/20 06:46:14;;;;;;;17.05;9.52;;;;;;;14.20;92.95;99838.38;5107410;28;20621;-76
2021/10/20 06:48:40;;;;;;;16.40;9.02;;;;;;;14.21;92.35;99827.44;5090270;28;20134;-76
2021/10/20 06:51:06;;;;;;;21.53;10.03;;;;;;;14.15;92.86;99817.53;5107483;28;20039;-76
2021/10/20 06:53:32;;;;;;;13.35;9.50;;;;;;;14.12;92.66;99809.91;5106858;28;20464;-77
2021/10/20 06:55:57;;;;;;;17.85;9.93;;;;;;;14.11;92.88;99802.88;5107863;28;20039;-75
2021/10/20 06:58:23;;;;;;;17.43;9.93;;;;;;;14.11;92.71;99816.28;5107494;28;20027;-75
2021/10/20 07:00:49;;;;;;;17.50;9.37;;;;;;;14.09;92.54;99807.63;5107324;28;20050;-76
2021/10/20 07:03:15;;;;;;;;;;;;;;;14.06;92.44;99800.00;5108629;28;20118;-75
2021/10/20 07:05:40;;;;;;;;;;;;;;;14.08;92.48;99784.50;5110650;28;20067;-76
2021/10/20 07:08:05;;;;;;;18.60;11.03;;;;;;;14.01;92.50;99797.13;5111936;28;19922;-76
2021/10/20 07:10:31;;;;;;;18.37;10.70;;;;;;;14.04;92.47;99768.00;5093908;28;20281;-75
2021/10/20 07:12:57;;;;;;;16.80;10.00;;;;;;;14.07;92.66;99766.75;5111861;28;20063;-76
2021/10/20 07:15:22;;;;;;;14.67;8.90;;;;;;;14.19;91.68;99746.28;5110062;28;20281;-76
2021/10/20 07:17:48;;;;;;;18.70;10.20;;;;;;;14.09;91.43;99748.56;5092800;28;20335;-75
2021/10/20 07:20:13;;;;;;;17.85;10.15;;;;;;;14.14;91.35;99759.50;5108606;28;20588;-75
2021/10/20 07:22:39;;;;;;;19.37;10.87;;;;;;;14.12;91.25;99766.97;5107483;28;20496;-76
2021/10/20 07:25:08;;;;;;;16.65;9.88;;;;;;;14.10;91.23;99780.59;5108056;28;20046;-76
2021/10/20 07:27:34;;;;;;;20.90;9.93;;;;;;;14.16;91.08;99741.34;5107207;28;20032;-76
2021/10/20 07:30:01;;;;;;;14.38;9.40;;;;;;;14.24;90.64;99741.13;5108325;28;20143;-76
2021/10/20 07:32:27;;;;;;;19.77;9.82;;;;;;;14.28;90.11;99730.75;5107305;28;20031;-76
2021/10/20 07:34:52;;;;;;;18.27;9.65;;;;;;;14.38;89.69;99711.56;5108163;28;20019;-76
2021/10/20 07:37:17;;;;;;;20.20;10.57;;;;;;;14.40;89.69;99721.03;5119843;27;20091;-75
2021/10/20 07:39:43;;;;;;;16.17;9.47;;;;;;;14.36;89.13;99726.00;5131464;27;20031;-75
2021/10/20 07:42:08;;;;;;;18.13;8.73;;;;;;;14.35;89.29;99729.72;5130567;27;20033;-75
2021/10/20 07:44:34;;;;;;;15.40;9.13;;;;;;;14.33;89.16;99709.50;5113408;27;20451;-76
2021/10/20 07:46:59;;;;;;;17.95;8.55;;;;;;;14.45;88.66;99726.59;5113484;27;20368;-76
2021/10/20 07:49:25;;;;;;;15.32;8.55;;;;;;;14.49;88.32;99716.22;5130268;27;20091;-74
2021/10/20 07:51:56;;;;;;;14.47;8.33;;;;;;;14.54;87.80;99713.78;5128620;27;20023;-75
2021/10/20 07:54:22;;;;;;;15.95;8.43;;;;;;;14.57;87.62;99694.53;5127440;27;20035;-75
2021/10/20 07:56:47;;;;;;;18.13;9.07;;;;;;;14.62;87.07;99694.72;5128298;27;20029;-76
2021/10/20 07:59:12;;;;;;;13.27;8.53;;;;;;;14.68;86.99;99693.03;5128999;27;20039;-75
2021/10/20 08:01:38;;;;;;;13.70;8.57;;;;;;;14.69;86.56;99670.50;5129287;27;20035;-77
2021/10/20 08:04:03;;;;;;;15.30;9.70;;;;;;;14.80;86.36;99677.03;5129227;27;20583;-75
2021/10/20 08:06:29;;;;;;;14.30;8.67;;;;;;;14.68;86.56;99658.94;5112191;27;20027;-76
2021/10/20 08:08:54;;;;;;;19.80;10.88;;;;;;;14.79;86.08;99660.09;5112329;27;20105;-75
2021/10/20 08:11:20;;;;;;;11.75;8.85;;;;;;;14.81;85.97;99663.41;5129230;27;20031;-76
2021/10/20 08:13:45;;;;;;;18.87;9.90;;;;;;;14.82;85.70;99653.47;5129065;27;20034;-76
2021/10/20 08:16:11;;;;;;;14.33;9.83;;;;;;;14.82;85.27;99648.09;5129038;27;20057;-76
2021/10/20 08:18:37;;;;;;;17.10;10.10;;;;;;;14.95;85.29;99664.16;5130048;27;20039;-75
2021/10/20 08:21:02;;;;;;;17.38;9.38;;;;;;;14.79;86.01;99662.78;5129113;27;20035;-75
2021/10/20 08:23:29;;;;;;;13.60;9.47;;;;;;;14.80;85.98;99650.19;5111694;27;20038;-76
2021/10/20 08:25:54;;;;;;;;;;;;;;;14.97;86.00;99662.06;5130516;27;20531;-76
2021/10/20 08:28:20;;;;;;;;;;;;;;;15.05;85.31;99636.78;5130424;27;19915;-74
2021/10/20 08:30:45;;;;;;;;;;;;;;;15.12;85.08;99632.16;5129398;27;19960;-75
2021/10/20 08:33:11;;;;;;;20.80;10.40;;;;;;;15.10;84.66;99602.84;5128618;27;19922;-74
2021/10/20 08:35:37;;;;;;;16.55;9.90;;;;;;;15.14;84.21;99613.97;5111662;27;20051;-75
2021/10/20 08:38:03;;;;;;;;;;;;;;;15.09;84.48;99608.44;5129337;27;20031;-76
2021/10/20 08:40:31;;;;;;;;;;;;;;;15.11;84.68;99593.72;5129287;27;20022;-75
2021/10/20 08:42:57;;;;;;;20.27;11.27;;;;;;;15.13;83.42;99574.69;5128691;27;19918;-75
2021/10/20 08:45:23;;;;;;;26.02;10.60;;;;;;;15.24;82.83;99587.41;5111389;27;20045;-75
2021/10/20 08:47:52;;;;;;;26.00;12.23;;;;;;;15.26;83.31;99579.94;5128617;27;20035;-74
2021/10/20 08:50:20;;;;;;;17.38;10.90;;;;;;;15.22;83.34;99572.53;5129458;27;20118;-75
2021/10/20 08:52:49;;;;;;;16.88;10.90;;;;;;;15.27;83.23;99575.41;5128348;27;20066;-76
2021/10/20 08:55:16;;;;;;;21.30;11.23;;;;;;;15.38;82.71;99588.09;5128033;27;20039;-76
2021/10/20 08:57:43;;;;;;;19.10;10.43;;;;;;;15.52;82.25;99568.09;5128867;27;20367;-75
2021/10/20 09:00:10;;;;;;;15.40;9.20;;;;;;;15.78;81.72;99539.25;5129311;27;20425;-75
2021/10/20 09:02:38;;;;;;;18.38;10.88;;;;;;;16.44;79.01;99527.59;5111269;27;20039;-75
2021/10/20 09:05:05;;;;;;;18.83;10.65;;;;;;;16.26;78.52;99519.56;5129026;27;20035;-76
2021/10/20 09:07:30;;;;;;;18.67;9.48;;;;;;;16.41;78.42;99524.53;5111062;27;20084;-75
2021/10/20 09:09:56;;;;;;;18.30;10.48;;;;;;;16.67;77.22;99497.19;5111177;27;20031;-75
2021/10/20 09:12:26;;;;;;;16.17;10.37;;;;;;;16.24;78.13;99527.88;5127962;27;20023;-75
2021/10/20 09:14:58;;;;;;;16.10;9.63;;;;;;;16.32;78.58;99526.75;5128363;27;20041;-76
2021/10/20 09:17:24;;;;;;;15.18;10.52;;;;;;;16.73;77.38;99500.81;5110633;27;20035;-75
2021/10/20 09:19:51;;;;;;;16.60;9.43;;;;;;;16.46;77.46;99501.25;5127761;27;20027;-77
2021/10/20 09:22:17;;;;;;;14.43;9.95;;;;;;;16.06;79.38;99514.50;5110340;27;20477;-75
2021/10/20 09:24:44;;;;;;;14.73;8.50;;;;;;;16.42;78.84;99529.69;5127602;27;20027;-77
2021/10/20 09:27:22;;;;;;;15.68;9.13;;;;;;;16.60;77.48;99479.47;5126966;27;20031;-75
2021/10/20 09:29:48;;;;;;;17.98;9.65;;;;;;;17.05;76.82;99501.31;5127689;27;20122;-76
2021/10/20 09:32:13;;;;;;;13.80;8.55;;;;;;;17.08;76.06;99483.84;5127522;27;20129;-75
2021/10/20 09:34:40;;;;;;;16.10;8.40;;;;;;;16.65;77.57;99483.13;5126980;27;20104;-76
2021/10/20 09:37:07;;;;;;;16.70;9.13;;;;;;;16.44;78.68;99489.06;5126996;27;20050;-75
2021/10/20 09:39:36;;;;;;;18.80;9.63;;;;;;;16.08;80.24;99506.16;5126892;27;20027;-75
2021/10/20 09:42:08;;;;;;;14.60;9.68;;;;;;;16.01;80.70;99499.00;5127345;27;20019;-75
2021/10/20 09:44:49;;;;;;;16.17;9.55;;;;;;;16.04;81.07;99501.25;5109120;28;20141;-75
2021/10/20 09:47:15;;;;;;;17.42;8.98;;;;;;;15.91;81.45;99473.69;5126091;27;20042;-75
2021/10/20 09:49:56;;;;;;;14.53;9.67;;;;;;;15.89;81.99;99481.16;5126857;27;20035;-75
2021/10/20 09:52:23;;;;;;;16.77;10.50;;;;;;;15.92;81.38;99462.69;5127719;27;20433;-75
2021/10/20 09:54:49;;;;;;;13.90;9.43;;;;;;;15.89;82.07;99481.16;5109882;28;20039;-75
2021/10/20 09:57:15;;;;;;;16.45;9.88;;;;;;;15.94;81.64;99470.53;5110547;28;20031;-75
2021/10/20 09:59:42;;;;;;;13.38;9.35;;;;;;;15.95;81.57;99473.00;5127600;28;20049;-74
2021/10/20 10:02:09;;;;;;;18.45;9.93;;;;;;;15.85;82.49;99478.13;5127487;28;20043;-75
2021/10/20 10:04:37;;;;;;;14.68;10.02;;;;;;;15.79;82.54;99465.56;5128202;27;20130;-75
2021/10/20 10:07:03;;;;;;;18.27;9.77;;;;;;;15.70;83.05;99469.59;5127369;27;20035;-75
2021/10/20 10:09:29;;;;;;;15.90;9.68;;;;;;;15.82;82.21;99492.00;5127624;27;20043;-75
2021/10/20 10:11:57;;;;;;;17.48;11.80;;;;;;;15.79;82.33;99484.41;5127971;27;20057;-75
2021/10/20 10:14:30;;;;;;;13.75;10.15;;;;;;;15.76;82.96;99476.78;5127533;27;20031;-74
2021/10/20 10:17:01;;;;;;;17.88;10.90;;;;;;;15.80;83.16;99492.25;5128170;28;20039;-75
2021/10/20 10:19:32;;;;;;;21.02;10.20;;;;;;;15.86;82.68;99479.75;5111086;28;20534;-74
2021/10/20 10:21:58;;;;;;;13.85;10.15;;;;;;;15.99;82.42;99458.03;5129083;27;20039;-75
2021/10/20 10:24:33;;;;;;;23.77;11.02;;;;;;;15.97;82.47;99454.75;5128825;27;20042;-75
2021/10/20 10:27:05;;;;;;;15.70;11.15;;;;;;;15.93;82.79;99467.03;5129114;27;20460;-75
2021/10/20 10:29:32;;;;;;;16.88;9.35;;;;;;;15.93;82.13;99455.44;5128360;27;20430;-75
2021/10/20 10:32:01;;;;;;;17.27;10.63;;;;;;;15.88;82.56;99453.44;5128146;28;20106;-75
2021/10/20 10:34:33;;;;;;;18.05;9.18;;;;;;;15.88;82.85;99452.63;5128848;27;20064;-75
2021/10/20 10:37:00;;;;;;;18.15;9.15;;;;;;;15.92;82.35;99481.53;5127960;28;20035;-76
2021/10/20 10:39:30;;;;;;;14.60;9.20;;;;;;;15.89;82.45;99454.25;5126641;27;20083;-75
2021/10/20 10:42:04;;;;;;;17.23;10.48;;;;;;;15.90;82.10;99456.72;5112832;27;20086;-75
2021/10/20 10:44:43;;;;;;;14.30;9.85;;;;;;;15.94;82.74;99443.63;5112842;27;20133;-75
2021/10/20 10:47:21;;;;;;;17.33;10.93;;;;;;;15.80;83.97;99448.34;5131814;27;20023;-74
2021/10/20 10:49:55;;;;;;;16.25;9.80;;;;;;;15.72;85.25;99464.84;5129604;27;20043;-74
2021/10/20 10:52:34;;;;;;;15.45;9.60;;;;;;;15.47;86.51;99432.63;5132618;27;20031;-74
2021/10/20 10:55:09;;;;;;;16.13;10.18;;;;;;;15.53;87.13;99443.31;5131245;27;20043;-74
2021/10/20 10:57:59;;;;;;;14.35;9.80;;;;;;;15.52;87.81;99456.97;5114311;27;20104;-74
2021/10/20 11:00:26;;;;;;;14.95;10.30;;;;;;;15.45;87.29;99438.22;5131539;27;20043;-75
2021/10/20 11:02:57;;;;;;;16.10;9.88;;;;;;;15.56;87.50;99466.25;5131486;27;20050;-76
2021/10/20 11:05:26;;;;;;;13.73;9.10;;;;;;;15.50;86.61;99441.09;5132089;27;20019;-74
2021/10/20 11:08:04;;;;;;;13.93;9.80;;;;;;;15.45;87.79;99454.38;5131403;27;20063;-75
2021/10/20 11:10:31;;;;;;;15.98;9.35;;;;;;;15.48;87.58;99458.50;5132273;27;20035;-75
2021/10/20 11:12:57;;;;;;;;;;;;;;;15.47;87.61;99444.19;5131866;27;20027;-75
2021/10/20 11:15:24;;;;;;;14.20;8.95;;;;;;;15.41;86.70;99443.25;5131050;27;19922;-75